sensor_id;sensor_type;location;lat;lon;timestamp;temperature;humidity
13798;DHT22;6970;51.340;3.240;2022-07-29T00:00:00;19.40;94.50
13798;DHT22;6970;51.340;3.240;2022-07-29T00:02:31;19.40;94.50
13798;DHT22;6970;51.340;3.240;2022-07-29T00:05:03;19.40;94.50
13798;DHT22;6970;51.340;3.240;2022-07-29T00:07:33;19.40;94.50
13798;DHT22;6970;51.340;3.240;2022-07-29T00:10:02;19.40;94.60
13798;DHT22;6970;51.340;3.240;2022-07-29T00:12:32;19.30;94.60
13798;DHT22;6970;51.340;3.240;2022-07-29T00:14:59;19.30;94.70
13798;DHT22;6970;51.340;3.240;2022-07-29T00:17:26;19.30;94.70
13798;DHT22;6970;51.340;3.240;2022-07-29T00:19:53;19.30;94.70
13798;DHT22;6970;51.340;3.240;2022-07-29T00:22:23;19.30;94.80
13798;DHT22;6970;51.340;3.240;2022-07-29T00:24:50;19.20;94.80
13798;DHT22;6970;51.340;3.240;2022-07-29T00:27:20;19.20;94.80
13798;DHT22;6970;51.340;3.240;2022-07-29T00:29:50;19.20;95.00
13798;DHT22;6970;51.340;3.240;2022-07-29T00:32:18;19.20;95.10
13798;DHT22;6970;51.340;3.240;2022-07-29T00:34:47;19.10;95.10
13798;DHT22;6970;51.340;3.240;2022-07-29T00:37:34;19.10;95.20
13798;DHT22;6970;51.340;3.240;2022-07-29T00:40:03;19.10;95.30
13798;DHT22;6970;51.340;3.240;2022-07-29T00:42:30;19.10;95.40
13798;DHT22;6970;51.340;3.240;2022-07-29T00:45:00;19.00;95.50
13798;DHT22;6970;51.340;3.240;2022-07-29T00:47:28;19.00;95.50
13798;DHT22;6970;51.340;3.240;2022-07-29T00:49:57;19.00;95.60
13798;DHT22;6970;51.340;3.240;2022-07-29T00:52:24;19.00;95.70
13798;DHT22;6970;51.340;3.240;2022-07-29T00:54:52;19.00;95.80
13798;DHT22;6970;51.340;3.240;2022-07-29T00:57:20;18.90;95.70
13798;DHT22;6970;51.340;3.240;2022-07-29T00:59:47;18.90;95.80
13798;DHT22;6970;51.340;3.240;2022-07-29T01:02:14;18.90;95.80
13798;DHT22;6970;51.340;3.240;2022-07-29T01:04:42;18.90;95.90
13798;DHT22;6970;51.340;3.240;2022-07-29T01:07:10;18.90;95.90
13798;DHT22;6970;51.340;3.240;2022-07-29T01:09:37;18.90;95.90
13798;DHT22;6970;51.340;3.240;2022-07-29T01:12:18;18.80;95.90
13798;DHT22;6970;51.340;3.240;2022-07-29T01:14:50;18.80;96.00
13798;DHT22;6970;51.340;3.240;2022-07-29T01:17:32;18.80;96.00
13798;DHT22;6970;51.340;3.240;2022-07-29T01:31:22;18.70;96.10
13798;DHT22;6970;51.340;3.240;2022-07-29T01:33:58;18.70;96.20
13798;DHT22;6970;51.340;3.240;2022-07-29T01:36:43;18.70;96.20
13798;DHT22;6970;51.340;3.240;2022-07-29T01:39:19;18.60;96.20
13798;DHT22;6970;51.340;3.240;2022-07-29T01:42:15;18.60;96.60
13798;DHT22;6970;51.340;3.240;2022-07-29T01:44:56;18.60;96.30
13798;DHT22;6970;51.340;3.240;2022-07-29T01:47:31;18.60;96.40
13798;DHT22;6970;51.340;3.240;2022-07-29T01:50:04;18.50;96.50
13798;DHT22;6970;51.340;3.240;2022-07-29T01:52:56;18.50;96.60
13798;DHT22;6970;51.340;3.240;2022-07-29T01:55:31;18.40;96.60
13798;DHT22;6970;51.340;3.240;2022-07-29T01:58:01;18.40;96.70
13798;DHT22;6970;51.340;3.240;2022-07-29T02:00:32;18.40;96.70
13798;DHT22;6970;51.340;3.240;2022-07-29T02:03:10;18.40;96.90
13798;DHT22;6970;51.340;3.240;2022-07-29T02:05:42;18.40;96.90
13798;DHT22;6970;51.340;3.240;2022-07-29T02:08:16;18.30;96.90
13798;DHT22;6970;51.340;3.240;2022-07-29T02:10:46;18.40;97.10
13798;DHT22;6970;51.340;3.240;2022-07-29T02:13:17;18.30;97.10
13798;DHT22;6970;51.340;3.240;2022-07-29T02:15:46;18.30;97.10
13798;DHT22;6970;51.340;3.240;2022-07-29T02:18:19;18.30;97.20
13798;DHT22;6970;51.340;3.240;2022-07-29T02:20:56;18.30;97.20
13798;DHT22;6970;51.340;3.240;2022-07-29T02:23:28;18.30;97.30
13798;DHT22;6970;51.340;3.240;2022-07-29T02:26:24;18.30;97.40
13798;DHT22;6970;51.340;3.240;2022-07-29T02:28:55;18.20;97.50
13798;DHT22;6970;51.340;3.240;2022-07-29T02:31:28;18.20;97.80
13798;DHT22;6970;51.340;3.240;2022-07-29T02:33:57;18.20;97.60
13798;DHT22;6970;51.340;3.240;2022-07-29T02:36:28;18.20;97.60
13798;DHT22;6970;51.340;3.240;2022-07-29T02:38:56;18.20;97.60
13798;DHT22;6970;51.340;3.240;2022-07-29T02:41:41;18.20;97.60
13798;DHT22;6970;51.340;3.240;2022-07-29T02:44:14;18.20;97.70
13798;DHT22;6970;51.340;3.240;2022-07-29T02:46:50;18.20;97.80
13798;DHT22;6970;51.340;3.240;2022-07-29T02:52:26;18.20;98.00
13798;DHT22;6970;51.340;3.240;2022-07-29T02:55:10;18.20;98.10
13798;DHT22;6970;51.340;3.240;2022-07-29T02:57:49;18.20;98.20
13798;DHT22;6970;51.340;3.240;2022-07-29T03:00:27;18.20;98.20
13798;DHT22;6970;51.340;3.240;2022-07-29T03:02:58;18.20;98.40
13798;DHT22;6970;51.340;3.240;2022-07-29T03:05:29;18.20;98.50
13798;DHT22;6970;51.340;3.240;2022-07-29T03:08:03;18.20;98.40
13798;DHT22;6970;51.340;3.240;2022-07-29T03:10:34;18.20;98.40
13798;DHT22;6970;51.340;3.240;2022-07-29T03:13:05;18.20;98.50
13798;DHT22;6970;51.340;3.240;2022-07-29T03:15:36;18.20;98.80
13798;DHT22;6970;51.340;3.240;2022-07-29T03:18:06;18.10;98.50
13798;DHT22;6970;51.340;3.240;2022-07-29T03:20:38;18.10;98.50
13798;DHT22;6970;51.340;3.240;2022-07-29T03:23:05;18.10;98.60
13798;DHT22;6970;51.340;3.240;2022-07-29T03:25:34;18.10;98.60
13798;DHT22;6970;51.340;3.240;2022-07-29T03:28:03;18.20;98.70
13798;DHT22;6970;51.340;3.240;2022-07-29T03:30:30;18.10;98.70
13798;DHT22;6970;51.340;3.240;2022-07-29T03:33:00;18.10;98.70
13798;DHT22;6970;51.340;3.240;2022-07-29T03:35:35;18.10;98.60
13798;DHT22;6970;51.340;3.240;2022-07-29T03:38:05;18.10;98.60
13798;DHT22;6970;51.340;3.240;2022-07-29T03:41:00;18.10;98.70
13798;DHT22;6970;51.340;3.240;2022-07-29T03:43:30;18.10;98.80
13798;DHT22;6970;51.340;3.240;2022-07-29T03:46:00;18.10;98.90
13798;DHT22;6970;51.340;3.240;2022-07-29T03:48:33;18.10;98.90
13798;DHT22;6970;51.340;3.240;2022-07-29T03:51:06;18.10;98.90
13798;DHT22;6970;51.340;3.240;2022-07-29T03:53:39;18.10;98.90
13798;DHT22;6970;51.340;3.240;2022-07-29T03:56:15;18.10;99.00
13798;DHT22;6970;51.340;3.240;2022-07-29T03:58:43;18.00;99.00
13798;DHT22;6970;51.340;3.240;2022-07-29T04:01:12;18.00;99.10
13798;DHT22;6970;51.340;3.240;2022-07-29T04:03:40;18.00;99.10
13798;DHT22;6970;51.340;3.240;2022-07-29T04:06:10;18.00;99.30
13798;DHT22;6970;51.340;3.240;2022-07-29T04:08:38;18.00;99.40
13798;DHT22;6970;51.340;3.240;2022-07-29T04:11:05;18.00;99.60
13798;DHT22;6970;51.340;3.240;2022-07-29T04:13:35;18.00;99.70
13798;DHT22;6970;51.340;3.240;2022-07-29T04:16:03;18.00;99.80
13798;DHT22;6970;51.340;3.240;2022-07-29T04:18:31;18.00;99.90
13798;DHT22;6970;51.340;3.240;2022-07-29T04:21:01;18.10;99.90
13798;DHT22;6970;51.340;3.240;2022-07-29T04:23:31;18.10;99.90
13798;DHT22;6970;51.340;3.240;2022-07-29T04:26:00;18.10;99.90
13798;DHT22;6970;51.340;3.240;2022-07-29T04:28:29;18.10;99.90
13798;DHT22;6970;51.340;3.240;2022-07-29T04:30:56;18.10;99.90
13798;DHT22;6970;51.340;3.240;2022-07-29T04:33:24;18.10;99.90
13798;DHT22;6970;51.340;3.240;2022-07-29T04:35:55;18.10;99.90
13798;DHT22;6970;51.340;3.240;2022-07-29T04:38:24;18.10;99.90
13798;DHT22;6970;51.340;3.240;2022-07-29T04:40:52;18.10;99.90
13798;DHT22;6970;51.340;3.240;2022-07-29T04:43:20;18.20;99.90
13798;DHT22;6970;51.340;3.240;2022-07-29T04:45:50;18.20;99.90
13798;DHT22;6970;51.340;3.240;2022-07-29T04:48:17;18.20;99.90
13798;DHT22;6970;51.340;3.240;2022-07-29T04:50:44;18.20;99.90
13798;DHT22;6970;51.340;3.240;2022-07-29T04:53:11;18.30;99.90
13798;DHT22;6970;51.340;3.240;2022-07-29T04:55:40;18.30;99.90
13798;DHT22;6970;51.340;3.240;2022-07-29T04:58:10;18.30;99.90
13798;DHT22;6970;51.340;3.240;2022-07-29T05:00:43;18.30;99.90
13798;DHT22;6970;51.340;3.240;2022-07-29T05:03:10;18.30;99.90
13798;DHT22;6970;51.340;3.240;2022-07-29T05:05:41;18.40;99.90
13798;DHT22;6970;51.340;3.240;2022-07-29T05:08:08;18.40;99.90
13798;DHT22;6970;51.340;3.240;2022-07-29T05:10:38;18.40;99.90
13798;DHT22;6970;51.340;3.240;2022-07-29T05:13:06;18.50;99.90
13798;DHT22;6970;51.340;3.240;2022-07-29T05:15:34;18.50;99.90
13798;DHT22;6970;51.340;3.240;2022-07-29T05:18:06;18.50;99.90
13798;DHT22;6970;51.340;3.240;2022-07-29T05:20:34;18.60;99.90
13798;DHT22;6970;51.340;3.240;2022-07-29T05:23:04;18.60;99.90
13798;DHT22;6970;51.340;3.240;2022-07-29T05:25:35;18.60;99.90
13798;DHT22;6970;51.340;3.240;2022-07-29T05:28:12;18.70;99.90
13798;DHT22;6970;51.340;3.240;2022-07-29T05:30:42;18.70;99.90
13798;DHT22;6970;51.340;3.240;2022-07-29T05:33:14;18.70;99.90
13798;DHT22;6970;51.340;3.240;2022-07-29T05:36:05;18.80;99.90
13798;DHT22;6970;51.340;3.240;2022-07-29T05:38:37;18.80;99.90
13798;DHT22;6970;51.340;3.240;2022-07-29T05:41:07;18.80;99.90
13798;DHT22;6970;51.340;3.240;2022-07-29T05:43:37;18.90;99.90
13798;DHT22;6970;51.340;3.240;2022-07-29T05:46:07;18.90;99.90
13798;DHT22;6970;51.340;3.240;2022-07-29T05:48:35;18.90;99.90
13798;DHT22;6970;51.340;3.240;2022-07-29T05:51:03;18.90;99.90
13798;DHT22;6970;51.340;3.240;2022-07-29T05:53:33;18.90;99.90
13798;DHT22;6970;51.340;3.240;2022-07-29T05:56:03;19.00;99.90
13798;DHT22;6970;51.340;3.240;2022-07-29T05:58:31;19.00;99.90
13798;DHT22;6970;51.340;3.240;2022-07-29T06:01:01;19.10;99.80
13798;DHT22;6970;51.340;3.240;2022-07-29T06:03:32;19.10;99.70
13798;DHT22;6970;51.340;3.240;2022-07-29T06:05:59;19.10;99.50
13798;DHT22;6970;51.340;3.240;2022-07-29T06:08:28;19.20;99.50
13798;DHT22;6970;51.340;3.240;2022-07-29T06:10:58;19.20;99.30
13798;DHT22;6970;51.340;3.240;2022-07-29T06:13:25;19.30;99.30
13798;DHT22;6970;51.340;3.240;2022-07-29T06:15:56;19.30;99.30
13798;DHT22;6970;51.340;3.240;2022-07-29T06:18:23;19.30;99.30
13798;DHT22;6970;51.340;3.240;2022-07-29T06:20:53;19.40;99.30
13798;DHT22;6970;51.340;3.240;2022-07-29T06:23:21;19.40;99.30
13798;DHT22;6970;51.340;3.240;2022-07-29T06:25:48;19.50;99.20
13798;DHT22;6970;51.340;3.240;2022-07-29T06:28:18;19.50;99.20
13798;DHT22;6970;51.340;3.240;2022-07-29T06:30:48;19.60;99.10
13798;DHT22;6970;51.340;3.240;2022-07-29T06:33:21;19.70;99.10
13798;DHT22;6970;51.340;3.240;2022-07-29T06:35:48;19.70;99.00
13798;DHT22;6970;51.340;3.240;2022-07-29T06:38:22;19.80;98.90
13798;DHT22;6970;51.340;3.240;2022-07-29T06:41:00;19.90;98.90
13798;DHT22;6970;51.340;3.240;2022-07-29T06:46:07;20.10;98.70
13798;DHT22;6970;51.340;3.240;2022-07-29T06:48:35;20.20;98.60
13798;DHT22;6970;51.340;3.240;2022-07-29T06:51:09;20.30;98.50
13798;DHT22;6970;51.340;3.240;2022-07-29T06:53:39;20.40;98.20
13798;DHT22;6970;51.340;3.240;2022-07-29T06:56:26;20.50;98.10
13798;DHT22;6970;51.340;3.240;2022-07-29T06:58:53;20.60;98.10
13798;DHT22;6970;51.340;3.240;2022-07-29T07:01:21;20.70;98.00
13798;DHT22;6970;51.340;3.240;2022-07-29T07:03:48;20.80;97.90
13798;DHT22;6970;51.340;3.240;2022-07-29T07:06:17;21.10;97.70
13798;DHT22;6970;51.340;3.240;2022-07-29T07:08:47;21.30;97.90
13798;DHT22;6970;51.340;3.240;2022-07-29T07:11:15;21.50;97.30
13798;DHT22;6970;51.340;3.240;2022-07-29T07:13:45;21.70;96.70
13798;DHT22;6970;51.340;3.240;2022-07-29T07:16:16;21.90;96.50
13798;DHT22;6970;51.340;3.240;2022-07-29T07:18:45;22.10;96.10
13798;DHT22;6970;51.340;3.240;2022-07-29T07:21:12;22.30;95.70
13798;DHT22;6970;51.340;3.240;2022-07-29T07:23:45;22.40;95.50
13798;DHT22;6970;51.340;3.240;2022-07-29T07:26:12;22.60;95.20
13798;DHT22;6970;51.340;3.240;2022-07-29T07:28:39;22.70;94.90
13798;DHT22;6970;51.340;3.240;2022-07-29T07:31:10;22.90;94.80
13798;DHT22;6970;51.340;3.240;2022-07-29T07:33:38;23.00;94.50
13798;DHT22;6970;51.340;3.240;2022-07-29T07:36:09;23.10;94.30
13798;DHT22;6970;51.340;3.240;2022-07-29T07:38:37;23.40;94.30
13798;DHT22;6970;51.340;3.240;2022-07-29T07:41:11;23.60;94.10
13798;DHT22;6970;51.340;3.240;2022-07-29T07:43:40;23.70;93.60
13798;DHT22;6970;51.340;3.240;2022-07-29T07:46:08;23.80;93.40
13798;DHT22;6970;51.340;3.240;2022-07-29T07:48:38;23.90;93.40
13798;DHT22;6970;51.340;3.240;2022-07-29T07:51:05;24.00;93.40
13798;DHT22;6970;51.340;3.240;2022-07-29T07:53:34;24.20;93.30
13798;DHT22;6970;51.340;3.240;2022-07-29T07:56:01;24.50;93.00
13798;DHT22;6970;51.340;3.240;2022-07-29T07:58:38;24.60;92.80
13798;DHT22;6970;51.340;3.240;2022-07-29T08:01:05;24.70;92.70
13798;DHT22;6970;51.340;3.240;2022-07-29T08:03:36;24.80;92.70
13798;DHT22;6970;51.340;3.240;2022-07-29T08:06:04;24.80;92.40
13798;DHT22;6970;51.340;3.240;2022-07-29T08:08:32;24.90;92.50
13798;DHT22;6970;51.340;3.240;2022-07-29T08:11:02;25.00;92.10
13798;DHT22;6970;51.340;3.240;2022-07-29T08:13:36;25.10;91.90
13798;DHT22;6970;51.340;3.240;2022-07-29T08:16:09;25.20;91.70
13798;DHT22;6970;51.340;3.240;2022-07-29T08:18:42;25.40;91.60
13798;DHT22;6970;51.340;3.240;2022-07-29T08:21:13;25.50;91.40
13798;DHT22;6970;51.340;3.240;2022-07-29T08:23:44;25.60;91.10
13798;DHT22;6970;51.340;3.240;2022-07-29T08:26:29;25.80;91.10
13798;DHT22;6970;51.340;3.240;2022-07-29T08:28:56;26.00;90.60
13798;DHT22;6970;51.340;3.240;2022-07-29T08:31:24;26.10;90.50
13798;DHT22;6970;51.340;3.240;2022-07-29T08:33:53;26.20;90.40
13798;DHT22;6970;51.340;3.240;2022-07-29T08:36:20;26.30;90.00
13798;DHT22;6970;51.340;3.240;2022-07-29T08:38:47;26.40;90.00
13798;DHT22;6970;51.340;3.240;2022-07-29T08:41:22;26.40;89.50
13798;DHT22;6970;51.340;3.240;2022-07-29T08:43:52;26.60;89.50
13798;DHT22;6970;51.340;3.240;2022-07-29T08:46:22;26.70;89.50
13798;DHT22;6970;51.340;3.240;2022-07-29T08:48:55;26.80;88.80
13798;DHT22;6970;51.340;3.240;2022-07-29T08:51:29;26.90;88.30
13798;DHT22;6970;51.340;3.240;2022-07-29T08:54:03;27.00;88.00
13798;DHT22;6970;51.340;3.240;2022-07-29T08:56:32;27.20;87.90
13798;DHT22;6970;51.340;3.240;2022-07-29T08:59:03;27.30;87.50
13798;DHT22;6970;51.340;3.240;2022-07-29T09:01:37;27.30;86.80
13798;DHT22;6970;51.340;3.240;2022-07-29T09:04:12;27.30;86.40
13798;DHT22;6970;51.340;3.240;2022-07-29T09:06:46;27.30;86.60
13798;DHT22;6970;51.340;3.240;2022-07-29T09:09:14;27.30;87.10
13798;DHT22;6970;51.340;3.240;2022-07-29T09:11:42;27.40;86.50
13798;DHT22;6970;51.340;3.240;2022-07-29T09:14:12;27.50;86.70
13798;DHT22;6970;51.340;3.240;2022-07-29T09:16:48;27.60;87.00
13798;DHT22;6970;51.340;3.240;2022-07-29T09:19:30;27.70;87.00
13798;DHT22;6970;51.340;3.240;2022-07-29T09:21:59;28.00;85.90
13798;DHT22;6970;51.340;3.240;2022-07-29T09:24:44;28.10;85.80
13798;DHT22;6970;51.340;3.240;2022-07-29T09:27:22;28.10;85.10
13798;DHT22;6970;51.340;3.240;2022-07-29T09:30:07;28.10;85.30
13798;DHT22;6970;51.340;3.240;2022-07-29T09:33:00;28.30;84.80
13798;DHT22;6970;51.340;3.240;2022-07-29T09:35:30;28.50;84.20
13798;DHT22;6970;51.340;3.240;2022-07-29T09:37:57;28.60;84.00
13798;DHT22;6970;51.340;3.240;2022-07-29T09:40:28;28.70;83.00
13798;DHT22;6970;51.340;3.240;2022-07-29T09:42:57;28.70;83.20
13798;DHT22;6970;51.340;3.240;2022-07-29T09:45:31;28.80;82.80
13798;DHT22;6970;51.340;3.240;2022-07-29T09:47:58;28.80;82.80
13798;DHT22;6970;51.340;3.240;2022-07-29T09:50:40;29.00;82.60
13798;DHT22;6970;51.340;3.240;2022-07-29T09:53:10;29.00;82.20
13798;DHT22;6970;51.340;3.240;2022-07-29T09:55:52;29.00;81.90
13798;DHT22;6970;51.340;3.240;2022-07-29T09:58:21;29.20;82.40
13798;DHT22;6970;51.340;3.240;2022-07-29T10:00:53;29.40;82.10
13798;DHT22;6970;51.340;3.240;2022-07-29T10:03:28;29.60;81.60
13798;DHT22;6970;51.340;3.240;2022-07-29T10:06:10;29.70;81.00
13798;DHT22;6970;51.340;3.240;2022-07-29T10:08:37;29.60;80.80
13798;DHT22;6970;51.340;3.240;2022-07-29T10:11:20;29.60;80.80
13798;DHT22;6970;51.340;3.240;2022-07-29T10:13:49;29.80;81.20
13798;DHT22;6970;51.340;3.240;2022-07-29T10:16:19;29.90;80.70
13798;DHT22;6970;51.340;3.240;2022-07-29T10:18:47;30.00;80.80
13798;DHT22;6970;51.340;3.240;2022-07-29T10:21:15;30.00;80.20
13798;DHT22;6970;51.340;3.240;2022-07-29T10:24:05;30.10;79.70
13798;DHT22;6970;51.340;3.240;2022-07-29T10:26:43;30.00;79.00
13798;DHT22;6970;51.340;3.240;2022-07-29T10:29:15;29.90;79.30
13798;DHT22;6970;51.340;3.240;2022-07-29T10:32:21;29.80;78.80
13798;DHT22;6970;51.340;3.240;2022-07-29T10:44:20;29.40;79.70
13798;DHT22;6970;51.340;3.240;2022-07-29T10:46:51;29.30;80.20
13798;DHT22;6970;51.340;3.240;2022-07-29T10:52:07;29.20;81.10
13798;DHT22;6970;51.340;3.240;2022-07-29T10:54:48;29.20;81.40
13798;DHT22;6970;51.340;3.240;2022-07-29T10:57:26;29.40;81.20
13798;DHT22;6970;51.340;3.240;2022-07-29T11:02:46;29.60;80.70
13798;DHT22;6970;51.340;3.240;2022-07-29T11:05:21;29.90;79.60
13798;DHT22;6970;51.340;3.240;2022-07-29T11:10:49;30.10;78.40
13798;DHT22;6970;51.340;3.240;2022-07-29T11:13:47;30.10;78.80
13798;DHT22;6970;51.340;3.240;2022-07-29T11:16:20;30.20;78.40
13798;DHT22;6970;51.340;3.240;2022-07-29T11:21:55;30.10;78.60
13798;DHT22;6970;51.340;3.240;2022-07-29T11:24:29;30.10;79.00
13798;DHT22;6970;51.340;3.240;2022-07-29T11:27:11;30.00;79.70
13798;DHT22;6970;51.340;3.240;2022-07-29T11:30:01;30.10;79.00
13798;DHT22;6970;51.340;3.240;2022-07-29T11:32:38;30.10;78.30
13798;DHT22;6970;51.340;3.240;2022-07-29T11:35:22;29.90;78.80
13798;DHT22;6970;51.340;3.240;2022-07-29T11:38:26;29.70;79.20
13798;DHT22;6970;51.340;3.240;2022-07-29T11:41:23;29.60;79.90
13798;DHT22;6970;51.340;3.240;2022-07-29T11:43:56;29.50;80.30
13798;DHT22;6970;51.340;3.240;2022-07-29T11:49:19;29.50;80.30
13798;DHT22;6970;51.340;3.240;2022-07-29T11:51:58;29.50;80.50
13798;DHT22;6970;51.340;3.240;2022-07-29T11:54:33;29.40;80.40
13798;DHT22;6970;51.340;3.240;2022-07-29T11:57:23;29.40;80.80
13798;DHT22;6970;51.340;3.240;2022-07-29T12:00:05;29.30;81.50
13798;DHT22;6970;51.340;3.240;2022-07-29T12:02:41;29.10;81.00
13798;DHT22;6970;51.340;3.240;2022-07-29T12:05:14;29.00;81.20
13798;DHT22;6970;51.340;3.240;2022-07-29T12:07:51;28.90;81.50
13798;DHT22;6970;51.340;3.240;2022-07-29T12:10:19;28.80;82.10
13798;DHT22;6970;51.340;3.240;2022-07-29T12:13:02;28.70;82.90
13798;DHT22;6970;51.340;3.240;2022-07-29T12:15:31;28.80;82.60
13798;DHT22;6970;51.340;3.240;2022-07-29T12:18:19;28.60;82.80
13798;DHT22;6970;51.340;3.240;2022-07-29T12:21:00;28.50;83.60
13798;DHT22;6970;51.340;3.240;2022-07-29T12:23:34;28.40;84.00
13798;DHT22;6970;51.340;3.240;2022-07-29T12:26:05;28.20;84.00
13798;DHT22;6970;51.340;3.240;2022-07-29T12:28:52;28.10;84.80
13798;DHT22;6970;51.340;3.240;2022-07-29T12:31:23;28.10;85.00
13798;DHT22;6970;51.340;3.240;2022-07-29T12:34:11;28.00;85.20
13798;DHT22;6970;51.340;3.240;2022-07-29T12:36:40;27.90;85.00
13798;DHT22;6970;51.340;3.240;2022-07-29T12:39:07;27.90;84.60
13798;DHT22;6970;51.340;3.240;2022-07-29T12:41:37;27.80;85.30
13798;DHT22;6970;51.340;3.240;2022-07-29T12:44:05;27.90;85.40
13798;DHT22;6970;51.340;3.240;2022-07-29T12:46:32;27.90;85.20
13798;DHT22;6970;51.340;3.240;2022-07-29T12:49:00;27.80;84.80
13798;DHT22;6970;51.340;3.240;2022-07-29T12:51:32;27.80;85.90
13798;DHT22;6970;51.340;3.240;2022-07-29T12:54:12;27.80;86.10
13798;DHT22;6970;51.340;3.240;2022-07-29T12:56:44;27.90;85.40
13798;DHT22;6970;51.340;3.240;2022-07-29T12:59:20;27.90;85.50
13798;DHT22;6970;51.340;3.240;2022-07-29T13:01:49;27.80;85.50
13798;DHT22;6970;51.340;3.240;2022-07-29T13:04:32;27.70;85.50
13798;DHT22;6970;51.340;3.240;2022-07-29T13:07:04;27.60;86.10
13798;DHT22;6970;51.340;3.240;2022-07-29T13:09:44;27.50;86.20
13798;DHT22;6970;51.340;3.240;2022-07-29T13:12:17;27.40;87.20
13798;DHT22;6970;51.340;3.240;2022-07-29T13:14:49;27.30;87.00
13798;DHT22;6970;51.340;3.240;2022-07-29T13:17:22;27.20;87.80
13798;DHT22;6970;51.340;3.240;2022-07-29T13:20:06;27.10;87.30
13798;DHT22;6970;51.340;3.240;2022-07-29T13:22:36;26.90;88.10
13798;DHT22;6970;51.340;3.240;2022-07-29T13:25:05;26.70;88.40
13798;DHT22;6970;51.340;3.240;2022-07-29T13:27:38;26.70;88.70
13798;DHT22;6970;51.340;3.240;2022-07-29T13:30:10;26.70;88.90
13798;DHT22;6970;51.340;3.240;2022-07-29T13:32:43;26.70;88.40
13798;DHT22;6970;51.340;3.240;2022-07-29T13:35:14;26.70;89.20
13798;DHT22;6970;51.340;3.240;2022-07-29T13:37:42;26.60;88.70
13798;DHT22;6970;51.340;3.240;2022-07-29T13:40:15;26.60;88.70
13798;DHT22;6970;51.340;3.240;2022-07-29T13:42:46;26.50;89.20
13798;DHT22;6970;51.340;3.240;2022-07-29T13:45:16;26.40;89.80
13798;DHT22;6970;51.340;3.240;2022-07-29T13:47:44;26.40;89.60
13798;DHT22;6970;51.340;3.240;2022-07-29T13:50:18;26.40;89.80
13798;DHT22;6970;51.340;3.240;2022-07-29T13:52:48;26.40;89.80
13798;DHT22;6970;51.340;3.240;2022-07-29T13:55:23;26.40;89.00
13798;DHT22;6970;51.340;3.240;2022-07-29T13:57:51;26.40;89.30
13798;DHT22;6970;51.340;3.240;2022-07-29T14:00:20;26.40;89.80
13798;DHT22;6970;51.340;3.240;2022-07-29T14:02:50;26.50;89.70
13798;DHT22;6970;51.340;3.240;2022-07-29T14:05:19;26.50;89.50
13798;DHT22;6970;51.340;3.240;2022-07-29T14:07:52;26.50;89.50
13798;DHT22;6970;51.340;3.240;2022-07-29T14:10:22;26.40;89.70
13798;DHT22;6970;51.340;3.240;2022-07-29T14:12:51;26.30;89.60
13798;DHT22;6970;51.340;3.240;2022-07-29T14:15:21;26.30;89.60
13798;DHT22;6970;51.340;3.240;2022-07-29T14:17:51;26.20;89.20
13798;DHT22;6970;51.340;3.240;2022-07-29T14:20:20;26.20;89.20
13798;DHT22;6970;51.340;3.240;2022-07-29T14:22:50;26.20;89.40
13798;DHT22;6970;51.340;3.240;2022-07-29T14:25:20;26.10;88.80
13798;DHT22;6970;51.340;3.240;2022-07-29T14:27:52;26.00;89.80
13798;DHT22;6970;51.340;3.240;2022-07-29T14:30:22;25.90;90.30
13798;DHT22;6970;51.340;3.240;2022-07-29T14:32:50;25.70;90.30
13798;DHT22;6970;51.340;3.240;2022-07-29T14:35:20;25.60;90.80
13798;DHT22;6970;51.340;3.240;2022-07-29T14:37:50;25.70;91.10
13798;DHT22;6970;51.340;3.240;2022-07-29T14:40:20;25.70;90.60
13798;DHT22;6970;51.340;3.240;2022-07-29T14:42:47;25.70;90.60
13798;DHT22;6970;51.340;3.240;2022-07-29T14:45:17;25.60;90.60
13798;DHT22;6970;51.340;3.240;2022-07-29T14:47:46;25.50;90.90
13798;DHT22;6970;51.340;3.240;2022-07-29T14:50:14;25.40;91.10
13798;DHT22;6970;51.340;3.240;2022-07-29T14:52:48;25.30;91.00
13798;DHT22;6970;51.340;3.240;2022-07-29T14:55:15;25.30;90.70
13798;DHT22;6970;51.340;3.240;2022-07-29T14:57:48;25.20;90.70
13798;DHT22;6970;51.340;3.240;2022-07-29T15:00:19;25.20;91.40
13798;DHT22;6970;51.340;3.240;2022-07-29T15:02:53;25.10;91.40
13798;DHT22;6970;51.340;3.240;2022-07-29T15:05:32;25.10;91.30
13798;DHT22;6970;51.340;3.240;2022-07-29T15:07:59;25.10;91.30
13798;DHT22;6970;51.340;3.240;2022-07-29T15:10:32;25.00;91.10
13798;DHT22;6970;51.340;3.240;2022-07-29T15:13:02;25.00;91.20
13798;DHT22;6970;51.340;3.240;2022-07-29T15:15:32;25.00;91.40
13798;DHT22;6970;51.340;3.240;2022-07-29T15:18:02;24.90;91.40
13798;DHT22;6970;51.340;3.240;2022-07-29T15:20:32;24.90;91.20
13798;DHT22;6970;51.340;3.240;2022-07-29T15:23:02;24.80;91.40
13798;DHT22;6970;51.340;3.240;2022-07-29T15:25:30;24.80;91.40
13798;DHT22;6970;51.340;3.240;2022-07-29T15:27:58;24.70;91.60
13798;DHT22;6970;51.340;3.240;2022-07-29T15:30:30;24.70;91.60
13798;DHT22;6970;51.340;3.240;2022-07-29T15:33:03;24.70;91.80
13798;DHT22;6970;51.340;3.240;2022-07-29T15:35:31;24.60;91.80
13798;DHT22;6970;51.340;3.240;2022-07-29T15:37:59;24.60;91.50
13798;DHT22;6970;51.340;3.240;2022-07-29T15:40:37;24.50;91.90
13798;DHT22;6970;51.340;3.240;2022-07-29T15:43:12;24.40;91.60
13798;DHT22;6970;51.340;3.240;2022-07-29T15:45:42;24.40;91.70
13798;DHT22;6970;51.340;3.240;2022-07-29T15:48:39;24.40;92.00
13798;DHT22;6970;51.340;3.240;2022-07-29T15:51:06;24.30;92.10
13798;DHT22;6970;51.340;3.240;2022-07-29T15:53:33;24.30;92.20
13798;DHT22;6970;51.340;3.240;2022-07-29T15:56:01;24.30;92.10
13798;DHT22;6970;51.340;3.240;2022-07-29T15:58:32;24.30;92.30
13798;DHT22;6970;51.340;3.240;2022-07-29T16:01:00;24.30;91.80
13798;DHT22;6970;51.340;3.240;2022-07-29T16:03:40;24.30;92.10
13798;DHT22;6970;51.340;3.240;2022-07-29T16:06:15;24.30;92.40
13798;DHT22;6970;51.340;3.240;2022-07-29T16:08:45;24.30;92.40
13798;DHT22;6970;51.340;3.240;2022-07-29T16:11:12;24.40;92.20
13798;DHT22;6970;51.340;3.240;2022-07-29T16:13:40;24.40;92.20
13798;DHT22;6970;51.340;3.240;2022-07-29T16:16:08;24.40;92.40
13798;DHT22;6970;51.340;3.240;2022-07-29T16:18:37;24.30;92.80
13798;DHT22;6970;51.340;3.240;2022-07-29T16:21:07;24.20;92.60
13798;DHT22;6970;51.340;3.240;2022-07-29T16:23:34;24.20;92.70
13798;DHT22;6970;51.340;3.240;2022-07-29T16:26:01;24.10;92.80
13798;DHT22;6970;51.340;3.240;2022-07-29T16:28:29;24.00;92.60
13798;DHT22;6970;51.340;3.240;2022-07-29T16:30:59;23.90;92.60
13798;DHT22;6970;51.340;3.240;2022-07-29T16:33:29;23.90;92.70
13798;DHT22;6970;51.340;3.240;2022-07-29T16:36:19;23.90;92.80
13798;DHT22;6970;51.340;3.240;2022-07-29T16:38:49;23.90;92.70
13798;DHT22;6970;51.340;3.240;2022-07-29T16:41:18;23.80;92.80
13798;DHT22;6970;51.340;3.240;2022-07-29T16:43:48;23.70;92.90
13798;DHT22;6970;51.340;3.240;2022-07-29T16:46:16;23.70;92.80
13798;DHT22;6970;51.340;3.240;2022-07-29T16:48:51;23.70;93.00
13798;DHT22;6970;51.340;3.240;2022-07-29T16:51:19;23.70;93.10
13798;DHT22;6970;51.340;3.240;2022-07-29T16:53:49;23.60;93.20
13798;DHT22;6970;51.340;3.240;2022-07-29T16:56:16;23.60;93.30